Terminal Aerodrome Forecast
Issued by NWS

Home | Current Version | Previous Version | Graphics & Text | Print | Product List | Glossary On
Versions: 1 2 3 4 5 6 7 8 9 10 11 12 13 14 15 16 17 18 19 20 21
000
FTUS41 KCLE 051200 AAA
TAFFDY
TAF AMD
KFDY 051214Z 0512/0612 VRB03KT 2SM -SHRA OVC060
      TEMPO 0512/0515 1SM -SHRA OVC035
     FM051500 VRB06KT P6SM SCT050 OVC080
     FM052300 07007KT P6SM SCT008 BKN120
     FM060400 07005KT 4SM BR SCT008 BKN200=

USA.gov is the U.S. government's official web portal to all federal, state and local government web resources and services.